sensor_id;sensor_type;location;lat;lon;timestamp;P1;durP1;ratioP1;P2;durP2;ratioP2
3022;SDS011;1521;53.584;9.938;2023-02-21T00:01:28;10.83;;;4.07;;
3022;SDS011;1521;53.584;9.938;2023-02-21T00:04:12;4.83;;;3.03;;
3022;SDS011;1521;53.584;9.938;2023-02-21T00:06:56;5.03;;;2.97;;
3022;SDS011;1521;53.584;9.938;2023-02-21T00:09:40;9.80;;;3.50;;
3022;SDS011;1521;53.584;9.938;2023-02-21T00:12:24;5.30;;;3.00;;
3022;SDS011;1521;53.584;9.938;2023-02-21T00:15:08;7.40;;;3.63;;
3022;SDS011;1521;53.584;9.938;2023-02-21T00:17:53;4.50;;;3.03;;
3022;SDS011;1521;53.584;9.938;2023-02-21T00:20:37;3.80;;;2.80;;
3022;SDS011;1521;53.584;9.938;2023-02-21T00:23:21;3.97;;;2.50;;
3022;SDS011;1521;53.584;9.938;2023-02-21T00:26:05;2.80;;;2.50;;
3022;SDS011;1521;53.584;9.938;2023-02-21T00:28:49;5.57;;;2.97;;
3022;SDS011;1521;53.584;9.938;2023-02-21T00:31:33;8.83;;;2.90;;
3022;SDS011;1521;53.584;9.938;2023-02-21T00:34:17;6.33;;;2.70;;
3022;SDS011;1521;53.584;9.938;2023-02-21T00:37:01;5.03;;;2.03;;
3022;SDS011;1521;53.584;9.938;2023-02-21T00:39:45;4.97;;;2.00;;
3022;SDS011;1521;53.584;9.938;2023-02-21T00:42:29;3.20;;;2.00;;
3022;SDS011;1521;53.584;9.938;2023-02-21T00:45:13;2.73;;;2.33;;
3022;SDS011;1521;53.584;9.938;2023-02-21T00:47:57;2.90;;;1.63;;
3022;SDS011;1521;53.584;9.938;2023-02-21T00:50:41;2.47;;;2.20;;
3022;SDS011;1521;53.584;9.938;2023-02-21T00:53:25;8.73;;;2.60;;
3022;SDS011;1521;53.584;9.938;2023-02-21T00:56:09;3.90;;;2.13;;
3022;SDS011;1521;53.584;9.938;2023-02-21T00:58:54;4.50;;;2.17;;
3022;SDS011;1521;53.584;9.938;2023-02-21T01:01:38;4.33;;;2.20;;
3022;SDS011;1521;53.584;9.938;2023-02-21T01:04:22;3.50;;;2.00;;
3022;SDS011;1521;53.584;9.938;2023-02-21T01:07:06;4.60;;;1.87;;
3022;SDS011;1521;53.584;9.938;2023-02-21T01:09:50;3.60;;;2.20;;
3022;SDS011;1521;53.584;9.938;2023-02-21T01:12:34;4.50;;;1.83;;
3022;SDS011;1521;53.584;9.938;2023-02-21T01:15:18;4.87;;;1.80;;
3022;SDS011;1521;53.584;9.938;2023-02-21T01:18:02;4.60;;;2.27;;
3022;SDS011;1521;53.584;9.938;2023-02-21T01:20:46;6.00;;;2.17;;
3022;SDS011;1521;53.584;9.938;2023-02-21T01:23:30;3.10;;;1.77;;
3022;SDS011;1521;53.584;9.938;2023-02-21T01:26:15;4.07;;;2.07;;
3022;SDS011;1521;53.584;9.938;2023-02-21T01:28:59;5.77;;;2.00;;
3022;SDS011;1521;53.584;9.938;2023-02-21T01:31:43;2.93;;;1.77;;
3022;SDS011;1521;53.584;9.938;2023-02-21T01:34:27;4.10;;;1.80;;
3022;SDS011;1521;53.584;9.938;2023-02-21T01:37:11;3.63;;;2.20;;
3022;SDS011;1521;53.584;9.938;2023-02-21T01:39:55;7.40;;;2.10;;
3022;SDS011;1521;53.584;9.938;2023-02-21T01:42:39;3.13;;;1.90;;
3022;SDS011;1521;53.584;9.938;2023-02-21T01:48:11;4.10;;;2.17;;
3022;SDS011;1521;53.584;9.938;2023-02-21T01:51:01;5.40;;;1.73;;
3022;SDS011;1521;53.584;9.938;2023-02-21T01:53:47;2.50;;;2.20;;
3022;SDS011;1521;53.584;9.938;2023-02-21T01:56:32;4.93;;;2.17;;
3022;SDS011;1521;53.584;9.938;2023-02-21T01:59:17;2.80;;;1.87;;
3022;SDS011;1521;53.584;9.938;2023-02-21T02:05:09;3.53;;;2.00;;
3022;SDS011;1521;53.584;9.938;2023-02-21T02:07:54;5.90;;;2.10;;
3022;SDS011;1521;53.584;9.938;2023-02-21T02:10:39;4.20;;;1.87;;
3022;SDS011;1521;53.584;9.938;2023-02-21T02:16:05;7.30;;;2.67;;
3022;SDS011;1521;53.584;9.938;2023-02-21T02:32:18;4.03;;;2.53;;
3022;SDS011;1521;53.584;9.938;2023-02-21T02:37:57;4.63;;;2.63;;
3022;SDS011;1521;53.584;9.938;2023-02-21T02:40:41;6.40;;;2.00;;
3022;SDS011;1521;53.584;9.938;2023-02-21T02:43:14;4.33;;;2.20;;
3022;SDS011;1521;53.584;9.938;2023-02-21T02:49:20;3.40;;;1.90;;
3022;SDS011;1521;53.584;9.938;2023-02-21T02:51:47;5.40;;;2.03;;
3022;SDS011;1521;53.584;9.938;2023-02-21T02:54:13;3.37;;;2.07;;
3022;SDS011;1521;53.584;9.938;2023-02-21T02:56:38;2.77;;;2.23;;
3022;SDS011;1521;53.584;9.938;2023-02-21T02:59:11;2.87;;;2.10;;
3022;SDS011;1521;53.584;9.938;2023-02-21T03:06:55;3.63;;;2.13;;
3022;SDS011;1521;53.584;9.938;2023-02-21T03:10:06;2.60;;;1.83;;
3022;SDS011;1521;53.584;9.938;2023-02-21T03:15:44;1.73;;;1.63;;
3022;SDS011;1521;53.584;9.938;2023-02-21T03:20:49;2.20;;;2.00;;
3022;SDS011;1521;53.584;9.938;2023-02-21T03:23:20;6.67;;;1.90;;
3022;SDS011;1521;53.584;9.938;2023-02-21T03:25:47;4.03;;;1.63;;
3022;SDS011;1521;53.584;9.938;2023-02-21T03:28:15;3.30;;;1.30;;
3022;SDS011;1521;53.584;9.938;2023-02-21T03:30:41;2.30;;;1.80;;
3022;SDS011;1521;53.584;9.938;2023-02-21T03:33:08;1.80;;;1.70;;
3022;SDS011;1521;53.584;9.938;2023-02-21T03:35:34;1.60;;;1.50;;
3022;SDS011;1521;53.584;9.938;2023-02-21T03:38:00;4.90;;;1.33;;
3022;SDS011;1521;53.584;9.938;2023-02-21T03:40:26;2.20;;;1.67;;
3022;SDS011;1521;53.584;9.938;2023-02-21T03:42:54;1.80;;;1.63;;
3022;SDS011;1521;53.584;9.938;2023-02-21T03:45:21;3.47;;;2.00;;
3022;SDS011;1521;53.584;9.938;2023-02-21T03:47:47;4.20;;;1.83;;
3022;SDS011;1521;53.584;9.938;2023-02-21T03:50:13;1.97;;;1.67;;
3022;SDS011;1521;53.584;9.938;2023-02-21T03:52:39;2.00;;;1.80;;
3022;SDS011;1521;53.584;9.938;2023-02-21T03:55:05;5.00;;;1.90;;
3022;SDS011;1521;53.584;9.938;2023-02-21T03:57:31;5.10;;;2.10;;
3022;SDS011;1521;53.584;9.938;2023-02-21T03:59:57;2.70;;;1.93;;
3022;SDS011;1521;53.584;9.938;2023-02-21T04:02:23;5.77;;;2.33;;
3022;SDS011;1521;53.584;9.938;2023-02-21T04:04:48;5.87;;;1.77;;
3022;SDS011;1521;53.584;9.938;2023-02-21T04:07:17;4.07;;;2.10;;
3022;SDS011;1521;53.584;9.938;2023-02-21T04:09:44;4.67;;;2.37;;
3022;SDS011;1521;53.584;9.938;2023-02-21T04:12:10;4.07;;;2.27;;
3022;SDS011;1521;53.584;9.938;2023-02-21T04:14:36;2.60;;;2.23;;
3022;SDS011;1521;53.584;9.938;2023-02-21T04:17:02;8.63;;;2.30;;
3022;SDS011;1521;53.584;9.938;2023-02-21T04:19:28;3.60;;;2.13;;
3022;SDS011;1521;53.584;9.938;2023-02-21T04:21:54;9.10;;;2.43;;
3022;SDS011;1521;53.584;9.938;2023-02-21T04:24:20;3.30;;;1.80;;
3022;SDS011;1521;53.584;9.938;2023-02-21T04:26:45;3.30;;;2.77;;
3022;SDS011;1521;53.584;9.938;2023-02-21T04:29:11;11.97;;;2.57;;
3022;SDS011;1521;53.584;9.938;2023-02-21T04:31:37;7.23;;;2.60;;
3022;SDS011;1521;53.584;9.938;2023-02-21T04:34:02;6.70;;;2.37;;
3022;SDS011;1521;53.584;9.938;2023-02-21T04:36:28;14.33;;;2.40;;
3022;SDS011;1521;53.584;9.938;2023-02-21T04:38:54;18.20;;;3.90;;
3022;SDS011;1521;53.584;9.938;2023-02-21T04:41:20;14.67;;;2.70;;
3022;SDS011;1521;53.584;9.938;2023-02-21T04:43:46;23.83;;;3.00;;
3022;SDS011;1521;53.584;9.938;2023-02-21T04:46:12;22.63;;;2.87;;
3022;SDS011;1521;53.584;9.938;2023-02-21T04:48:41;14.80;;;2.47;;
3022;SDS011;1521;53.584;9.938;2023-02-21T04:51:09;21.90;;;2.93;;
3022;SDS011;1521;53.584;9.938;2023-02-21T04:53:35;18.93;;;2.93;;
3022;SDS011;1521;53.584;9.938;2023-02-21T04:56:00;18.30;;;3.17;;
3022;SDS011;1521;53.584;9.938;2023-02-21T04:58:26;15.90;;;2.30;;
3022;SDS011;1521;53.584;9.938;2023-02-21T05:00:51;17.70;;;3.07;;
3022;SDS011;1521;53.584;9.938;2023-02-21T05:03:17;18.07;;;2.70;;
3022;SDS011;1521;53.584;9.938;2023-02-21T05:05:43;18.60;;;2.40;;
3022;SDS011;1521;53.584;9.938;2023-02-21T05:08:08;22.83;;;3.10;;
3022;SDS011;1521;53.584;9.938;2023-02-21T05:10:34;12.07;;;3.87;;
3022;SDS011;1521;53.584;9.938;2023-02-21T05:12:59;14.17;;;2.70;;
3022;SDS011;1521;53.584;9.938;2023-02-21T05:15:25;12.87;;;2.80;;
3022;SDS011;1521;53.584;9.938;2023-02-21T05:17:51;16.27;;;2.40;;
3022;SDS011;1521;53.584;9.938;2023-02-21T05:20:16;12.77;;;3.07;;
3022;SDS011;1521;53.584;9.938;2023-02-21T05:22:42;17.53;;;3.40;;
3022;SDS011;1521;53.584;9.938;2023-02-21T05:25:15;23.27;;;3.40;;
3022;SDS011;1521;53.584;9.938;2023-02-21T05:27:42;14.30;;;2.80;;
3022;SDS011;1521;53.584;9.938;2023-02-21T05:30:08;21.13;;;2.63;;
3022;SDS011;1521;53.584;9.938;2023-02-21T05:32:34;26.13;;;2.80;;
3022;SDS011;1521;53.584;9.938;2023-02-21T05:34:59;16.17;;;3.87;;
3022;SDS011;1521;53.584;9.938;2023-02-21T05:37:25;15.23;;;3.30;;
3022;SDS011;1521;53.584;9.938;2023-02-21T05:39:51;16.83;;;3.87;;
3022;SDS011;1521;53.584;9.938;2023-02-21T05:42:16;21.97;;;3.77;;
3022;SDS011;1521;53.584;9.938;2023-02-21T05:44:43;25.10;;;3.57;;
3022;SDS011;1521;53.584;9.938;2023-02-21T05:47:09;22.67;;;3.17;;
3022;SDS011;1521;53.584;9.938;2023-02-21T05:49:35;17.77;;;2.83;;
3022;SDS011;1521;53.584;9.938;2023-02-21T05:52:01;17.07;;;3.20;;
3022;SDS011;1521;53.584;9.938;2023-02-21T05:54:26;16.77;;;2.63;;
3022;SDS011;1521;53.584;9.938;2023-02-21T05:56:52;18.20;;;3.53;;
3022;SDS011;1521;53.584;9.938;2023-02-21T05:59:18;21.40;;;2.93;;
3022;SDS011;1521;53.584;9.938;2023-02-21T06:01:45;17.03;;;3.00;;
3022;SDS011;1521;53.584;9.938;2023-02-21T06:04:11;15.33;;;3.23;;
3022;SDS011;1521;53.584;9.938;2023-02-21T06:06:37;22.03;;;4.10;;
3022;SDS011;1521;53.584;9.938;2023-02-21T06:09:04;23.83;;;4.20;;
3022;SDS011;1521;53.584;9.938;2023-02-21T06:11:31;12.60;;;2.70;;
3022;SDS011;1521;53.584;9.938;2023-02-21T06:13:59;21.70;;;3.23;;
3022;SDS011;1521;53.584;9.938;2023-02-21T06:16:30;19.90;;;3.50;;
3022;SDS011;1521;53.584;9.938;2023-02-21T06:19:00;29.10;;;4.30;;
3022;SDS011;1521;53.584;9.938;2023-02-21T06:21:26;18.43;;;3.40;;
3022;SDS011;1521;53.584;9.938;2023-02-21T06:23:52;22.43;;;3.90;;
3022;SDS011;1521;53.584;9.938;2023-02-21T06:26:18;26.37;;;4.10;;
3022;SDS011;1521;53.584;9.938;2023-02-21T06:28:44;17.73;;;3.33;;
3022;SDS011;1521;53.584;9.938;2023-02-21T06:31:10;23.47;;;3.63;;
3022;SDS011;1521;53.584;9.938;2023-02-21T06:33:36;27.20;;;4.43;;
3022;SDS011;1521;53.584;9.938;2023-02-21T06:36:05;16.73;;;4.20;;
3022;SDS011;1521;53.584;9.938;2023-02-21T06:38:32;28.40;;;4.60;;
3022;SDS011;1521;53.584;9.938;2023-02-21T06:40:59;28.17;;;4.07;;
3022;SDS011;1521;53.584;9.938;2023-02-21T06:43:24;19.80;;;3.60;;
3022;SDS011;1521;53.584;9.938;2023-02-21T06:45:50;37.73;;;4.60;;
3022;SDS011;1521;53.584;9.938;2023-02-21T06:48:16;35.43;;;4.83;;
3022;SDS011;1521;53.584;9.938;2023-02-21T06:50:42;29.90;;;4.10;;
3022;SDS011;1521;53.584;9.938;2023-02-21T06:53:07;26.00;;;4.10;;
3022;SDS011;1521;53.584;9.938;2023-02-21T06:55:33;18.47;;;3.73;;
3022;SDS011;1521;53.584;9.938;2023-02-21T06:57:59;20.10;;;3.90;;
3022;SDS011;1521;53.584;9.938;2023-02-21T07:00:24;25.03;;;4.10;;
3022;SDS011;1521;53.584;9.938;2023-02-21T07:02:51;17.17;;;3.57;;
3022;SDS011;1521;53.584;9.938;2023-02-21T07:05:17;21.00;;;3.57;;
3022;SDS011;1521;53.584;9.938;2023-02-21T07:07:43;23.70;;;3.87;;
3022;SDS011;1521;53.584;9.938;2023-02-21T07:10:10;26.20;;;4.07;;
3022;SDS011;1521;53.584;9.938;2023-02-21T07:12:36;22.03;;;3.80;;
3022;SDS011;1521;53.584;9.938;2023-02-21T07:15:02;21.37;;;3.20;;
3022;SDS011;1521;53.584;9.938;2023-02-21T07:17:27;16.40;;;3.70;;
3022;SDS011;1521;53.584;9.938;2023-02-21T07:19:53;24.00;;;3.57;;
3022;SDS011;1521;53.584;9.938;2023-02-21T07:22:18;15.53;;;3.40;;
3022;SDS011;1521;53.584;9.938;2023-02-21T07:24:50;27.23;;;4.70;;
3022;SDS011;1521;53.584;9.938;2023-02-21T07:27:17;30.77;;;4.60;;
3022;SDS011;1521;53.584;9.938;2023-02-21T07:29:42;13.33;;;3.67;;
3022;SDS011;1521;53.584;9.938;2023-02-21T07:32:11;26.07;;;4.33;;
3022;SDS011;1521;53.584;9.938;2023-02-21T07:34:36;18.67;;;3.97;;
3022;SDS011;1521;53.584;9.938;2023-02-21T07:37:02;26.47;;;3.97;;
3022;SDS011;1521;53.584;9.938;2023-02-21T07:39:27;16.10;;;3.70;;
3022;SDS011;1521;53.584;9.938;2023-02-21T07:41:53;27.90;;;4.53;;
3022;SDS011;1521;53.584;9.938;2023-02-21T07:44:18;22.27;;;4.17;;
3022;SDS011;1521;53.584;9.938;2023-02-21T07:46:44;32.73;;;4.50;;
3022;SDS011;1521;53.584;9.938;2023-02-21T07:49:10;20.20;;;4.80;;
3022;SDS011;1521;53.584;9.938;2023-02-21T07:51:36;20.50;;;4.13;;
3022;SDS011;1521;53.584;9.938;2023-02-21T07:54:01;33.37;;;4.40;;
3022;SDS011;1521;53.584;9.938;2023-02-21T07:56:27;28.33;;;4.30;;
3022;SDS011;1521;53.584;9.938;2023-02-21T07:58:52;22.13;;;4.33;;
3022;SDS011;1521;53.584;9.938;2023-02-21T08:01:20;24.30;;;4.30;;
3022;SDS011;1521;53.584;9.938;2023-02-21T08:03:47;27.90;;;6.00;;
3022;SDS011;1521;53.584;9.938;2023-02-21T08:06:13;19.43;;;4.87;;
3022;SDS011;1521;53.584;9.938;2023-02-21T08:08:39;21.03;;;3.80;;
3022;SDS011;1521;53.584;9.938;2023-02-21T08:11:04;16.23;;;4.83;;
3022;SDS011;1521;53.584;9.938;2023-02-21T08:13:30;22.10;;;3.60;;
3022;SDS011;1521;53.584;9.938;2023-02-21T08:15:56;19.00;;;4.83;;
3022;SDS011;1521;53.584;9.938;2023-02-21T08:18:21;18.20;;;4.47;;
3022;SDS011;1521;53.584;9.938;2023-02-21T08:20:50;16.43;;;4.17;;
3022;SDS011;1521;53.584;9.938;2023-02-21T08:23:18;17.63;;;4.07;;
3022;SDS011;1521;53.584;9.938;2023-02-21T08:25:44;23.20;;;4.10;;
3022;SDS011;1521;53.584;9.938;2023-02-21T08:28:11;16.50;;;4.60;;
3022;SDS011;1521;53.584;9.938;2023-02-21T08:30:37;13.27;;;3.77;;
3022;SDS011;1521;53.584;9.938;2023-02-21T08:33:02;23.13;;;4.00;;
3022;SDS011;1521;53.584;9.938;2023-02-21T08:35:28;20.63;;;4.63;;
3022;SDS011;1521;53.584;9.938;2023-02-21T08:37:54;23.63;;;4.33;;
3022;SDS011;1521;53.584;9.938;2023-02-21T08:40:21;18.50;;;3.70;;
3022;SDS011;1521;53.584;9.938;2023-02-21T08:42:48;20.90;;;4.13;;
3022;SDS011;1521;53.584;9.938;2023-02-21T08:45:15;19.17;;;4.03;;
3022;SDS011;1521;53.584;9.938;2023-02-21T08:47:42;23.13;;;4.07;;
3022;SDS011;1521;53.584;9.938;2023-02-21T08:50:08;15.17;;;3.40;;
3022;SDS011;1521;53.584;9.938;2023-02-21T08:52:34;16.67;;;3.37;;
3022;SDS011;1521;53.584;9.938;2023-02-21T08:55:00;18.43;;;4.20;;
3022;SDS011;1521;53.584;9.938;2023-02-21T08:57:25;18.83;;;4.13;;
3022;SDS011;1521;53.584;9.938;2023-02-21T08:59:51;20.57;;;3.67;;
3022;SDS011;1521;53.584;9.938;2023-02-21T09:02:18;18.27;;;4.20;;
3022;SDS011;1521;53.584;9.938;2023-02-21T09:04:46;18.07;;;4.70;;
3022;SDS011;1521;53.584;9.938;2023-02-21T09:07:12;22.90;;;4.30;;
3022;SDS011;1521;53.584;9.938;2023-02-21T09:09:42;23.40;;;4.50;;
3022;SDS011;1521;53.584;9.938;2023-02-21T09:12:08;20.97;;;3.23;;
3022;SDS011;1521;53.584;9.938;2023-02-21T09:14:37;23.23;;;3.37;;
3022;SDS011;1521;53.584;9.938;2023-02-21T09:17:04;14.20;;;3.10;;
3022;SDS011;1521;53.584;9.938;2023-02-21T09:19:31;17.77;;;4.60;;
3022;SDS011;1521;53.584;9.938;2023-02-21T09:21:57;19.07;;;4.03;;
3022;SDS011;1521;53.584;9.938;2023-02-21T09:24:24;21.40;;;3.47;;
3022;SDS011;1521;53.584;9.938;2023-02-21T09:26:51;28.47;;;4.40;;
3022;SDS011;1521;53.584;9.938;2023-02-21T09:29:24;20.17;;;4.77;;
3022;SDS011;1521;53.584;9.938;2023-02-21T09:31:50;19.70;;;3.43;;
3022;SDS011;1521;53.584;9.938;2023-02-21T09:34:16;14.27;;;3.40;;
3022;SDS011;1521;53.584;9.938;2023-02-21T09:36:42;12.90;;;3.30;;
3022;SDS011;1521;53.584;9.938;2023-02-21T09:39:08;31.37;;;5.10;;
3022;SDS011;1521;53.584;9.938;2023-02-21T09:41:34;21.30;;;4.87;;
3022;SDS011;1521;53.584;9.938;2023-02-21T09:44:00;19.30;;;3.20;;
3022;SDS011;1521;53.584;9.938;2023-02-21T09:48:57;30.33;;;4.20;;
3022;SDS011;1521;53.584;9.938;2023-02-21T09:51:23;21.83;;;4.00;;
3022;SDS011;1521;53.584;9.938;2023-02-21T09:53:50;18.80;;;2.83;;
3022;SDS011;1521;53.584;9.938;2023-02-21T09:58:53;20.97;;;4.00;;
3022;SDS011;1521;53.584;9.938;2023-02-21T10:09:26;17.40;;;3.33;;
3022;SDS011;1521;53.584;9.938;2023-02-21T10:12:18;15.13;;;2.70;;
3022;SDS011;1521;53.584;9.938;2023-02-21T10:15:00;26.43;;;4.53;;
3022;SDS011;1521;53.584;9.938;2023-02-21T10:17:45;19.30;;;3.30;;
3022;SDS011;1521;53.584;9.938;2023-02-21T10:23:02;19.70;;;2.97;;
3022;SDS011;1521;53.584;9.938;2023-02-21T10:25:38;11.33;;;3.43;;
3022;SDS011;1521;53.584;9.938;2023-02-21T10:28:17;17.97;;;3.73;;
3022;SDS011;1521;53.584;9.938;2023-02-21T10:30:45;12.67;;;2.90;;
3022;SDS011;1521;53.584;9.938;2023-02-21T10:33:13;18.10;;;2.93;;
3022;SDS011;1521;53.584;9.938;2023-02-21T10:35:39;15.00;;;3.80;;
3022;SDS011;1521;53.584;9.938;2023-02-21T10:38:25;15.57;;;3.27;;
3022;SDS011;1521;53.584;9.938;2023-02-21T10:40:55;21.40;;;4.13;;
3022;SDS011;1521;53.584;9.938;2023-02-21T10:43:30;15.63;;;3.50;;
3022;SDS011;1521;53.584;9.938;2023-02-21T10:48:29;19.67;;;3.90;;
3022;SDS011;1521;53.584;9.938;2023-02-21T10:53:49;23.70;;;4.27;;
3022;SDS011;1521;53.584;9.938;2023-02-21T11:01:22;18.93;;;3.00;;
3022;SDS011;1521;53.584;9.938;2023-02-21T11:03:58;20.43;;;2.60;;
3022;SDS011;1521;53.584;9.938;2023-02-21T11:08:54;16.03;;;3.07;;
3022;SDS011;1521;53.584;9.938;2023-02-21T11:11:33;17.43;;;3.13;;
3022;SDS011;1521;53.584;9.938;2023-02-21T11:16:41;15.60;;;3.03;;
3022;SDS011;1521;53.584;9.938;2023-02-21T11:19:06;14.53;;;3.10;;
3022;SDS011;1521;53.584;9.938;2023-02-21T11:21:36;15.10;;;2.70;;
3022;SDS011;1521;53.584;9.938;2023-02-21T11:24:03;15.80;;;2.83;;
3022;SDS011;1521;53.584;9.938;2023-02-21T11:26:36;11.90;;;2.73;;
3022;SDS011;1521;53.584;9.938;2023-02-21T11:29:11;16.60;;;2.87;;
3022;SDS011;1521;53.584;9.938;2023-02-21T11:31:42;10.07;;;2.03;;
3022;SDS011;1521;53.584;9.938;2023-02-21T11:34:10;10.60;;;2.63;;
3022;SDS011;1521;53.584;9.938;2023-02-21T11:36:38;22.17;;;3.83;;
3022;SDS011;1521;53.584;9.938;2023-02-21T11:41:56;10.83;;;2.50;;
3022;SDS011;1521;53.584;9.938;2023-02-21T11:52:13;11.80;;;2.23;;
3022;SDS011;1521;53.584;9.938;2023-02-21T11:54:55;11.10;;;2.23;;
3022;SDS011;1521;53.584;9.938;2023-02-21T11:57:24;11.90;;;2.80;;
3022;SDS011;1521;53.584;9.938;2023-02-21T12:11:08;10.30;;;2.27;;
3022;SDS011;1521;53.584;9.938;2023-02-21T12:22:30;8.57;;;1.93;;
3022;SDS011;1521;53.584;9.938;2023-02-21T12:28:15;10.77;;;2.53;;
3022;SDS011;1521;53.584;9.938;2023-02-21T12:38:49;8.23;;;2.90;;
3022;SDS011;1521;53.584;9.938;2023-02-21T12:44:11;7.20;;;2.50;;
3022;SDS011;1521;53.584;9.938;2023-02-21T12:46:54;6.50;;;2.63;;
3022;SDS011;1521;53.584;9.938;2023-02-21T12:49:41;11.00;;;2.60;;
3022;SDS011;1521;53.584;9.938;2023-02-21T12:52:20;6.43;;;2.13;;
3022;SDS011;1521;53.584;9.938;2023-02-21T12:54:59;6.33;;;2.40;;
3022;SDS011;1521;53.584;9.938;2023-02-21T12:57:33;8.87;;;2.90;;
3022;SDS011;1521;53.584;9.938;2023-02-21T13:05:50;8.33;;;2.50;;
3022;SDS011;1521;53.584;9.938;2023-02-21T13:08:20;11.07;;;2.97;;
3022;SDS011;1521;53.584;9.938;2023-02-21T13:13:39;10.77;;;2.10;;
3022;SDS011;1521;53.584;9.938;2023-02-21T13:16:05;7.60;;;3.00;;
3022;SDS011;1521;53.584;9.938;2023-02-21T13:18:41;15.70;;;2.70;;
3022;SDS011;1521;53.584;9.938;2023-02-21T13:24:09;14.47;;;2.93;;
3022;SDS011;1521;53.584;9.938;2023-02-21T13:26:43;12.63;;;2.80;;
3022;SDS011;1521;53.584;9.938;2023-02-21T13:29:21;8.07;;;2.57;;
3022;SDS011;1521;53.584;9.938;2023-02-21T13:31:55;9.20;;;2.83;;
3022;SDS011;1521;53.584;9.938;2023-02-21T13:34:22;6.70;;;2.13;;
3022;SDS011;1521;53.584;9.938;2023-02-21T13:36:52;12.13;;;2.50;;
3022;SDS011;1521;53.584;9.938;2023-02-21T13:39:19;10.17;;;2.10;;
3022;SDS011;1521;53.584;9.938;2023-02-21T13:41:54;10.97;;;2.57;;
3022;SDS011;1521;53.584;9.938;2023-02-21T13:44:31;8.73;;;2.40;;
3022;SDS011;1521;53.584;9.938;2023-02-21T13:47:13;11.87;;;2.33;;
3022;SDS011;1521;53.584;9.938;2023-02-21T14:05:24;6.50;;;2.30;;
3022;SDS011;1521;53.584;9.938;2023-02-21T14:07:57;13.03;;;3.03;;
3022;SDS011;1521;53.584;9.938;2023-02-21T14:10:32;7.50;;;2.33;;
3022;SDS011;1521;53.584;9.938;2023-02-21T14:13:14;4.90;;;1.87;;
3022;SDS011;1521;53.584;9.938;2023-02-21T14:16:09;5.73;;;2.20;;
3022;SDS011;1521;53.584;9.938;2023-02-21T14:18:42;7.87;;;1.83;;
3022;SDS011;1521;53.584;9.938;2023-02-21T14:21:14;3.43;;;1.63;;
3022;SDS011;1521;53.584;9.938;2023-02-21T14:23:45;6.70;;;1.70;;
3022;SDS011;1521;53.584;9.938;2023-02-21T14:31:49;5.33;;;1.53;;
3022;SDS011;1521;53.584;9.938;2023-02-21T14:45:40;5.50;;;1.70;;
3022;SDS011;1521;53.584;9.938;2023-02-21T14:48:43;6.83;;;1.80;;
3022;SDS011;1521;53.584;9.938;2023-02-21T15:02:28;10.17;;;2.20;;
3022;SDS011;1521;53.584;9.938;2023-02-21T15:08:07;6.90;;;1.83;;
3022;SDS011;1521;53.584;9.938;2023-02-21T15:10:45;8.83;;;2.63;;
3022;SDS011;1521;53.584;9.938;2023-02-21T15:13:45;6.03;;;1.60;;
3022;SDS011;1521;53.584;9.938;2023-02-21T15:16:05;9.03;;;1.60;;
3022;SDS011;1521;53.584;9.938;2023-02-21T15:18:37;6.00;;;1.33;;
3022;SDS011;1521;53.584;9.938;2023-02-21T15:21:06;6.43;;;2.00;;
3022;SDS011;1521;53.584;9.938;2023-02-21T15:23:35;5.90;;;1.80;;
3022;SDS011;1521;53.584;9.938;2023-02-21T15:26:25;4.93;;;1.90;;
3022;SDS011;1521;53.584;9.938;2023-02-21T15:29:10;6.83;;;2.00;;
3022;SDS011;1521;53.584;9.938;2023-02-21T15:31:44;9.47;;;2.43;;
3022;SDS011;1521;53.584;9.938;2023-02-21T15:34:17;6.00;;;2.20;;
3022;SDS011;1521;53.584;9.938;2023-02-21T15:36:45;6.40;;;1.87;;
3022;SDS011;1521;53.584;9.938;2023-02-21T15:39:20;6.67;;;2.03;;
3022;SDS011;1521;53.584;9.938;2023-02-21T15:42:00;7.80;;;1.93;;
3022;SDS011;1521;53.584;9.938;2023-02-21T15:47:25;9.63;;;2.13;;
3022;SDS011;1521;53.584;9.938;2023-02-21T15:52:43;10.10;;;2.23;;
3022;SDS011;1521;53.584;9.938;2023-02-21T15:55:26;10.03;;;2.33;;
3022;SDS011;1521;53.584;9.938;2023-02-21T15:57:58;12.57;;;2.50;;
3022;SDS011;1521;53.584;9.938;2023-02-21T16:00:29;13.50;;;2.73;;
3022;SDS011;1521;53.584;9.938;2023-02-21T16:08:52;10.10;;;2.50;;
3022;SDS011;1521;53.584;9.938;2023-02-21T16:11:23;13.17;;;2.73;;
3022;SDS011;1521;53.584;9.938;2023-02-21T16:13:51;15.30;;;2.77;;
3022;SDS011;1521;53.584;9.938;2023-02-21T16:16:17;10.07;;;2.43;;
3022;SDS011;1521;53.584;9.938;2023-02-21T16:18:42;11.07;;;2.57;;
3022;SDS011;1521;53.584;9.938;2023-02-21T16:21:19;7.23;;;2.13;;
3022;SDS011;1521;53.584;9.938;2023-02-21T16:23:47;13.50;;;3.07;;
3022;SDS011;1521;53.584;9.938;2023-02-21T16:28:40;7.87;;;2.50;;
3022;SDS011;1521;53.584;9.938;2023-02-21T16:31:09;11.50;;;2.73;;
3022;SDS011;1521;53.584;9.938;2023-02-21T16:33:40;11.50;;;3.23;;
3022;SDS011;1521;53.584;9.938;2023-02-21T16:36:14;7.03;;;2.53;;
3022;SDS011;1521;53.584;9.938;2023-02-21T16:38:45;9.97;;;2.90;;
3022;SDS011;1521;53.584;9.938;2023-02-21T16:41:12;6.53;;;2.43;;
3022;SDS011;1521;53.584;9.938;2023-02-21T16:43:38;12.37;;;2.93;;
3022;SDS011;1521;53.584;9.938;2023-02-21T16:46:04;16.97;;;3.17;;
3022;SDS011;1521;53.584;9.938;2023-02-21T16:48:29;9.33;;;3.03;;
3022;SDS011;1521;53.584;9.938;2023-02-21T16:50:57;10.20;;;3.07;;
3022;SDS011;1521;53.584;9.938;2023-02-21T16:53:26;10.37;;;3.20;;
3022;SDS011;1521;53.584;9.938;2023-02-21T16:55:51;11.50;;;3.57;;
3022;SDS011;1521;53.584;9.938;2023-02-21T16:58:19;26.37;;;4.60;;
3022;SDS011;1521;53.584;9.938;2023-02-21T17:00:50;9.40;;;3.30;;
3022;SDS011;1521;53.584;9.938;2023-02-21T17:03:20;8.57;;;3.30;;
3022;SDS011;1521;53.584;9.938;2023-02-21T17:05:46;14.20;;;4.20;;
3022;SDS011;1521;53.584;9.938;2023-02-21T17:08:12;9.60;;;3.67;;
3022;SDS011;1521;53.584;9.938;2023-02-21T17:10:38;8.63;;;3.80;;
3022;SDS011;1521;53.584;9.938;2023-02-21T17:13:04;16.57;;;4.73;;
3022;SDS011;1521;53.584;9.938;2023-02-21T17:15:29;11.50;;;4.83;;
3022;SDS011;1521;53.584;9.938;2023-02-21T17:17:56;17.03;;;4.13;;
3022;SDS011;1521;53.584;9.938;2023-02-21T17:20:22;15.80;;;4.37;;
3022;SDS011;1521;53.584;9.938;2023-02-21T17:22:49;13.33;;;4.37;;
3022;SDS011;1521;53.584;9.938;2023-02-21T17:25:16;11.90;;;4.10;;
3022;SDS011;1521;53.584;9.938;2023-02-21T17:27:42;10.23;;;4.67;;
3022;SDS011;1521;53.584;9.938;2023-02-21T17:30:09;14.70;;;4.97;;
3022;SDS011;1521;53.584;9.938;2023-02-21T17:32:35;10.40;;;4.53;;
3022;SDS011;1521;53.584;9.938;2023-02-21T17:35:01;10.43;;;4.20;;
3022;SDS011;1521;53.584;9.938;2023-02-21T17:37:26;8.63;;;4.57;;
3022;SDS011;1521;53.584;9.938;2023-02-21T17:39:53;9.87;;;4.57;;
3022;SDS011;1521;53.584;9.938;2023-02-21T17:42:19;12.47;;;5.10;;
3022;SDS011;1521;53.584;9.938;2023-02-21T17:44:45;13.10;;;4.60;;
3022;SDS011;1521;53.584;9.938;2023-02-21T17:47:19;7.33;;;4.20;;
3022;SDS011;1521;53.584;9.938;2023-02-21T17:49:47;9.13;;;4.60;;
3022;SDS011;1521;53.584;9.938;2023-02-21T17:52:13;9.83;;;4.57;;
3022;SDS011;1521;53.584;9.938;2023-02-21T17:54:40;9.53;;;4.90;;
3022;SDS011;1521;53.584;9.938;2023-02-21T17:57:06;11.43;;;4.40;;
3022;SDS011;1521;53.584;9.938;2023-02-21T17:59:35;12.20;;;4.70;;
3022;SDS011;1521;53.584;9.938;2023-02-21T18:02:02;12.80;;;5.17;;
3022;SDS011;1521;53.584;9.938;2023-02-21T18:04:28;17.90;;;5.07;;
3022;SDS011;1521;53.584;9.938;2023-02-21T18:06:53;7.33;;;4.53;;
3022;SDS011;1521;53.584;9.938;2023-02-21T18:09:20;6.70;;;4.10;;
3022;SDS011;1521;53.584;9.938;2023-02-21T18:11:49;8.37;;;4.60;;
3022;SDS011;1521;53.584;9.938;2023-02-21T18:14:16;9.67;;;4.70;;
3022;SDS011;1521;53.584;9.938;2023-02-21T18:16:42;11.10;;;4.40;;
3022;SDS011;1521;53.584;9.938;2023-02-21T18:19:08;6.87;;;4.37;;
3022;SDS011;1521;53.584;9.938;2023-02-21T18:21:34;10.37;;;4.80;;
3022;SDS011;1521;53.584;9.938;2023-02-21T18:24:05;5.63;;;4.30;;
3022;SDS011;1521;53.584;9.938;2023-02-21T18:26:34;7.60;;;5.17;;
3022;SDS011;1521;53.584;9.938;2023-02-21T18:29:00;11.43;;;4.83;;
3022;SDS011;1521;53.584;9.938;2023-02-21T18:31:26;12.53;;;6.03;;
3022;SDS011;1521;53.584;9.938;2023-02-21T18:33:52;9.70;;;5.00;;
3022;SDS011;1521;53.584;9.938;2023-02-21T18:36:17;14.00;;;6.87;;
3022;SDS011;1521;53.584;9.938;2023-02-21T18:38:43;10.57;;;6.80;;